Southampton, NY

12:41 PM EDT on July 29, 2016 (GMT -0400)
SoMAS Southampton | | Change Station

Elev 13 ft 40.88 °N, 72.44 °W | Updated 46 seconds ago

Light Rain
Light Rain
70.7 °F
Feels Like 70.7 °F
N
8.0
Wind Variable Wind from NE
Gusts 11.0 mph

Today
High -- | Low -- °F
--% Chance of Precip.
Yesterday
High -- | Low -- °F
Precip. -- in
Pressure 29.83 in
Visibility 7.0 miles
Clouds Scattered Clouds 900 ft
Mostly Cloudy 3200 ft
Overcast 4400 ft
Dew Point 70 °F
Humidity 97%
Rainfall 1.36 in
Snow Depth Not available.
5:43 AM 8:08 PM
Waning Crescent, 21% visible
METAR KHTO 291635Z AUTO 04008G15KT 7SM -RA SCT009 BKN032 OVC044 21/20 A2983 RMK AO2 T02090197
Pressure 29.83 in
Visibility 7.0 miles
Clouds Scattered Clouds 900 ft
Mostly Cloudy 3200 ft
Overcast 4400 ft
Dew Point 70 °F
Humidity 97%
Rainfall 1.36 in
Snow Depth Not available.
5:43 AM 8:08 PM
Waning Crescent, 21% visible
METAR KHTO 291635Z AUTO 04008G15KT 7SM -RA SCT009 BKN032 OVC044 21/20 A2983 RMK AO2 T02090197

10-Day Weather Forecast

Almanac

Astronomy

Jul. 29, 2016 Rise Set
Actual Time
Civil Twilight
Nautical Twilight
Astronomical Twilight
Moon
Length of Visible Light
Length of Day
Tomorrow will be .
, % of the Moon is Illuminated

Today's Extremes

State Highs State Lows

Community

WunderPhotos

Upload Photos

1,928,378 photos uploaded!

WunderBlog® & News

Nearby

Air Quality

  Air Quality AQ Index Pollutant
Not available.

Snow Depth

Station Depth Elevation

Earthquake Activity

City Distance Mag. Time & Date
Minimum magnitude displayed is 2.5.

Coastal Water Temperatures

Place Temperature

Stations

Nearby Weather Stations

Station Location Temp. Windchill Dew Point Humidity Wind Precip. Elev Updated Type
                   

Watches & Warnings

There are currently no watches in effect.